Time;durP1;ratioP1;P1;durP2;ratioP2;P2;SDS_P1;SDS_P2;PMS_P1;PMS_P2;Temp;Humidity;BMP_temperature;BMP_pressure;BME280_temperature;BME280_humidity;BME280_pressure;Samples;Min_cycle;Max_cycle;Signal;HPM_P1;HPM_P2
2022/07/31 00:00:52;;;;;;;;;;;;;;;12.71;77.88;99751.27;1760852;80;20463;-61
2022/07/31 00:03:19;;;;;;;;;;;;;;;12.69;77.95;99751.84;1753956;80;20218;-60
2022/07/31 00:05:45;;;;;;;;;;;;;;;12.75;78.48;99750.19;1753753;80;21057;-60
2022/07/31 00:08:11;;;;;;;;;;;;;;;12.77;78.45;99743.53;1758324;80;20138;-61
2022/07/31 00:10:38;;;;;;;;;;;;;;;12.76;78.44;99746.62;1755558;81;20114;-60
2022/07/31 00:13:05;;;;;;;;;;;;;;;12.76;78.56;99754.48;1755953;79;20591;-61
2022/07/31 00:15:31;;;;;;;;;;;;;;;12.72;78.33;99749.53;1773482;79;20118;-60
2022/07/31 00:17:58;;;;;;;;;;;;;;;12.68;78.47;99746.20;1769244;79;21096;-60
2022/07/31 00:20:24;;;;;;;;;;;;;;;12.66;78.52;99745.47;1767516;79;20124;-60
2022/07/31 00:22:50;;;;;;;;;;;;;;;12.61;78.39;99747.50;1773624;79;20398;-61
2022/07/31 00:25:17;;;;;;;;;;;;;;;12.57;78.60;99742.03;1767132;79;20439;-60
2022/07/31 00:27:44;;;;;;;;;;;;;;;12.53;78.74;99738.74;1766185;79;20395;-60
2022/07/31 00:30:15;;;;;;;;;;;;;;;12.52;78.99;99738.84;1768626;81;21355;-61
2022/07/31 00:32:42;;;;;;;;;;;;;;;12.51;79.06;99739.75;1775789;80;20442;-61
2022/07/31 00:35:12;;;;;;;;;;;;;;;12.51;79.34;99735.83;1776525;79;20109;-60
2022/07/31 00:37:39;;;;;;;;;;;;;;;12.55;79.45;99737.36;1778400;79;20690;-60
2022/07/31 00:40:07;;;;;;;;;;;;;;;12.59;79.69;99733.63;1763724;80;20123;-60
2022/07/31 00:42:34;;;;;;;;;;;;;;;12.59;79.49;99729.70;1770563;79;21042;-60
2022/07/31 00:45:00;;;;;;;;;;;;;;;12.54;79.55;99726.02;1773393;79;20104;-60
2022/07/31 00:47:27;;;;;;;;;;;;;;;12.55;79.79;99729.50;1781432;80;20440;-61
2022/07/31 00:49:53;;;;;;;;;;;;;;;12.52;79.77;99727.06;1780387;79;20494;-60
2022/07/31 00:52:20;;;;;;;;;;;;;;;12.49;79.70;99722.83;1776100;79;20107;-60
2022/07/31 00:54:46;;;;;;;;;;;;;;;12.51;80.08;99722.73;1768357;79;21043;-61
2022/07/31 00:57:14;;;;;;;;;;;;;;;12.51;80.02;99716.18;1774254;79;20144;-60
2022/07/31 00:59:40;;;;;;;;;;;;;;;12.49;80.14;99719.34;1770263;79;20115;-60
2022/07/31 01:02:07;;;;;;;;;;;;;;;12.47;80.15;99719.44;1776504;80;20490;-61
2022/07/31 01:04:33;;;;;;;;;;;;;;;12.43;80.13;99714.45;1734404;82;20105;-60
2022/07/31 01:07:00;;;;;;;;;;;;;;;12.42;80.29;99715.39;1770423;79;21874;-60
2022/07/31 01:09:26;;;;;;;;;;;;;;;12.39;80.18;99718.17;1774082;80;20112;-60
2022/07/31 01:11:59;;;;;;;;;;;;;;;12.35;80.40;99712.71;1782102;80;20480;-61
2022/07/31 01:14:29;;;;;;;;;;;;;;;12.36;80.60;99719.19;1759404;80;20518;-60
2022/07/31 01:16:57;;;;;;;;;;;;;;;12.38;80.77;99716.47;1712898;82;20434;-60
2022/07/31 01:19:30;;;;;;;;;;;;;;;12.42;80.83;99716.23;1757026;80;22320;-60
2022/07/31 01:22:23;;;;;;;;;;;;;;;12.45;81.12;99719.14;1729090;81;20442;-60
2022/07/31 01:25:07;;;;;;;;;;;;;;;12.46;81.01;99718.20;1717463;82;20125;-60
2022/07/31 01:27:56;;;;;;;;;;;;;;;12.43;81.14;99721.00;1713291;82;20126;-60
2022/07/31 01:30:25;;;;;;;;;;;;;;;12.45;81.55;99709.98;1726888;81;20152;-60
2022/07/31 01:32:53;;;;;;;;;;;;;;;12.39;81.20;99712.94;1687389;83;21068;-60
2022/07/31 01:35:23;;;;;;;;;;;;;;;12.37;81.38;99709.55;1713868;82;20718;-60
2022/07/31 01:37:55;;;;;;;;;;;;;;;12.37;81.56;99707.78;1710214;82;20452;-60
2022/07/31 01:40:36;;;;;;;;;;;;;;;12.37;82.01;99710.39;1713493;83;20113;-60
2022/07/31 01:43:05;;;;;;;;;;;;;;;12.38;81.75;99708.61;1710613;82;20437;-60
2022/07/31 01:45:32;;;;;;;;;;;;;;;12.37;82.24;99716.94;1712944;82;39486;-60
2022/07/31 01:47:59;;;;;;;;;;;;;;;12.39;82.16;99718.17;1714601;82;20470;-60
2022/07/31 01:50:26;;;;;;;;;;;;;;;12.36;81.96;99716.57;1711079;82;20120;-61
2022/07/31 01:52:53;;;;;;;;;;;;;;;12.35;82.44;99716.64;1712940;82;20154;-60
2022/07/31 01:55:20;;;;;;;;;;;;;;;12.35;82.52;99716.64;1709226;82;20188;-60
2022/07/31 01:57:47;;;;;;;;;;;;;;;12.33;82.24;99713.28;1713868;82;21638;-60
2022/07/31 02:00:14;;;;;;;;;;;;;;;12.32;82.36;99711.10;1710454;82;20134;-60
2022/07/31 02:02:42;;;;;;;;;;;;;;;12.34;82.54;99709.73;1726838;81;20150;-61
2022/07/31 02:05:10;;;;;;;;;;;;;;;12.34;82.42;99708.42;1729751;81;20722;-61
2022/07/31 02:07:37;;;;;;;;;;;;;;;12.31;82.50;99711.58;1729631;81;20508;-60
2022/07/31 02:10:04;;;;;;;;;;;;;;;12.33;82.82;99710.67;1729985;83;20710;-60
2022/07/31 02:12:32;;;;;;;;;;;;;;;12.27;82.75;99702.21;1726871;81;20171;-60
2022/07/31 02:15:00;;;;;;;;;;;;;;;12.24;82.59;99702.38;1726772;81;20151;-61
2022/07/31 02:17:27;;;;;;;;;;;;;;;12.22;83.92;99696.37;1741639;81;20083;-60
2022/07/31 02:19:54;;;;;;;;;;;;;;;12.27;83.88;99699.59;1749401;80;20138;-60
2022/07/31 02:22:20;;;;;;;;;;;;;;;12.24;83.67;99694.53;1755929;80;21808;-60
2022/07/31 02:24:47;;;;;;;;;;;;;;;12.28;83.66;99701.27;1757201;80;20119;-61
2022/07/31 02:27:13;;;;;;;;;;;;;;;12.26;83.45;99703.13;1759123;80;20102;-60
2022/07/31 02:29:41;;;;;;;;;;;;;;;12.27;83.67;99703.52;1755814;80;20138;-60
2022/07/31 02:32:07;;;;;;;;;;;;;;;12.26;83.50;99690.50;1751666;80;20155;-60
2022/07/31 02:34:35;;;;;;;;;;;;;;;12.25;83.54;99685.73;1740019;80;22010;-61
2022/07/31 02:37:02;;;;;;;;;;;;;;;12.25;83.72;99681.81;1746437;80;20094;-60
2022/07/31 02:39:30;;;;;;;;;;;;;;;12.24;83.66;99680.13;1755666;80;20114;-60
2022/07/31 02:41:59;;;;;;;;;;;;;;;12.23;83.84;99675.80;1736183;80;20138;-60
2022/07/31 02:44:27;;;;;;;;;;;;;;;12.24;83.92;99672.75;1756085;80;20091;-61
2022/07/31 02:46:54;;;;;;;;;;;;;;;12.24;83.97;99678.82;1746120;80;21082;-60
2022/07/31 02:49:20;;;;;;;;;;;;;;;12.25;83.89;99677.05;1757113;80;20146;-60
2022/07/31 02:51:47;;;;;;;;;;;;;;;12.28;84.16;99672.48;1784121;79;20072;-60
2022/07/31 02:54:13;;;;;;;;;;;;;;;12.16;83.58;99670.54;1758328;80;20109;-60
2022/07/31 02:56:40;;;;;;;;;;;;;;;12.09;83.77;99665.25;1750951;80;20119;-60
2022/07/31 02:59:06;;;;;;;;;;;;;;;12.01;83.71;99668.73;1754481;81;21032;-61
2022/07/31 03:01:36;;;;;;;;;;;;;;;11.94;83.81;99662.16;1778587;79;20151;-60
2022/07/31 03:04:02;;;;;;;;;;;;;;;11.93;84.04;99657.84;1778488;79;20127;-60
2022/07/31 03:06:28;;;;;;;;;;;;;;;11.92;84.10;99658.78;1744902;80;20492;-60
2022/07/31 03:08:55;;;;;;;;;;;;;;;11.93;84.24;99657.84;1743616;80;20459;-60
2022/07/31 03:11:21;;;;;;;;;;;;;;;11.97;84.34;99658.07;1747557;80;21032;-60
2022/07/31 03:13:48;;;;;;;;;;;;;;;12.00;84.54;99657.44;1755073;80;20166;-60
2022/07/31 03:16:15;;;;;;;;;;;;;;;12.04;84.47;99659.41;1754361;81;20082;-60
2022/07/31 03:18:41;;;;;;;;;;;;;;;12.05;84.37;99650.66;1762828;80;20146;-60
2022/07/31 03:21:08;;;;;;;;;;;;;;;12.02;84.40;99653.44;1754809;80;20094;-60
2022/07/31 03:23:35;;;;;;;;;;;;;;;12.01;84.27;99655.19;1759878;80;21279;-61
2022/07/31 03:26:02;;;;;;;;;;;;;;;12.02;84.47;99654.75;1760129;80;20070;-61
2022/07/31 03:28:28;;;;;;;;;;;;;;;12.04;84.57;99651.13;1756691;80;20106;-60
2022/07/31 03:30:55;;;;;;;;;;;;;;;12.07;84.41;99642.23;1759376;80;20082;-61
2022/07/31 03:33:22;;;;;;;;;;;;;;;12.07;84.57;99642.23;1759918;80;20158;-61
2022/07/31 03:35:49;;;;;;;;;;;;;;;12.09;84.36;99646.92;1755895;81;21998;-60
2022/07/31 03:38:15;;;;;;;;;;;;;;;12.07;84.47;99639.61;1753316;81;20133;-60
2022/07/31 03:40:42;;;;;;;;;;;;;;;12.05;84.16;99646.73;1754983;80;20121;-60
2022/07/31 03:43:08;;;;;;;;;;;;;;;12.02;84.12;99646.90;1753029;80;20109;-60
2022/07/31 03:45:36;;;;;;;;;;;;;;;12.04;84.50;99645.02;1753737;80;20098;-60
2022/07/31 03:48:04;;;;;;;;;;;;;;;12.15;84.97;99644.44;1760817;80;21198;-61
2022/07/31 03:50:31;;;;;;;;;;;;;;;12.18;84.70;99637.25;1757137;81;20424;-60
2022/07/31 03:52:57;;;;;;;;;;;;;;;12.22;84.59;99644.02;1760514;80;20070;-61
2022/07/31 03:55:24;;;;;;;;;;;;;;;12.18;84.41;99646.41;1757189;81;20117;-60
2022/07/31 03:57:51;;;;;;;;;;;;;;;12.24;84.75;99638.25;1752915;81;20114;-61
2022/07/31 04:00:19;;;;;;;;;;;;;;;12.38;85.36;99644.47;1760046;81;21283;-61
2022/07/31 04:02:45;;;;;;;;;;;;;;;12.52;85.65;99643.25;1756349;80;20117;-61
2022/07/31 04:05:12;;;;;;;;;;;;;;;12.60;85.47;99643.63;1761846;81;20094;-60
2022/07/31 04:07:38;;;;;;;;;;;;;;;12.68;85.92;99639.28;1759025;81;20538;-61
2022/07/31 04:10:05;;;;;;;;;;;;;;;12.76;85.91;99635.75;1757283;80;20089;-60
2022/07/31 04:12:31;;;;;;;;;;;;;;;12.87;86.33;99641.69;1762786;81;21125;-61
2022/07/31 04:14:58;;;;;;;;;;;;;;;12.93;86.30;99637.39;1758641;80;20242;-61
2022/07/31 04:17:24;;;;;;;;;;;;;;;12.98;86.32;99628.80;1760166;80;20114;-60
2022/07/31 04:19:51;;;;;;;;;;;;;;;13.09;86.74;99643.91;1762620;81;21123;-61
2022/07/31 04:22:17;;;;;;;;;;;;;;;13.17;86.45;99643.83;1758820;80;20102;-61
2022/07/31 04:24:44;;;;;;;;;;;;;;;13.24;86.41;99639.52;1760543;80;21861;-61
2022/07/31 04:27:11;;;;;;;;;;;;;;;13.29;86.72;99637.51;1757915;80;20130;-61
2022/07/31 04:29:37;;;;;;;;;;;;;;;13.36;86.51;99640.13;1757437;81;20123;-61
2022/07/31 04:32:04;;;;;;;;;;;;;;;13.40;86.98;99637.23;1759093;80;20136;-61
2022/07/31 04:34:30;;;;;;;;;;;;;;;13.45;86.84;99643.52;1759251;80;20082;-61
2022/07/31 04:36:57;;;;;;;;;;;;;;;13.54;86.92;99645.58;1761060;80;21865;-61
2022/07/31 04:39:25;;;;;;;;;;;;;;;13.62;87.05;99642.50;1755851;80;20118;-60
2022/07/31 04:41:52;;;;;;;;;;;;;;;13.70;86.98;99638.10;1758493;80;20097;-60
2022/07/31 04:44:19;;;;;;;;;;;;;;;13.80;86.99;99640.52;1762323;80;20094;-60
2022/07/31 04:46:46;;;;;;;;;;;;;;;13.88;86.93;99646.97;1760593;80;20471;-60
2022/07/31 04:49:13;;;;;;;;;;;;;;;13.93;86.96;99650.63;1761777;80;21277;-60
2022/07/31 04:51:41;;;;;;;;;;;;;;;13.96;86.83;99645.19;1761704;80;20082;-61
2022/07/31 04:54:08;;;;;;;;;;;;;;;14.02;87.00;99650.05;1759380;80;20427;-60
2022/07/31 04:56:43;;;;;;;;;;;;;;;14.17;87.33;99651.33;1759321;80;20144;-61
2022/07/31 04:59:13;;;;;;;;;;;;;;;14.30;87.08;99650.94;1762501;80;20145;-61
2022/07/31 05:01:41;;;;;;;;;;;;;;;14.40;86.98;99648.11;1759856;80;21028;-61
2022/07/31 05:04:08;;;;;;;;;;;;;;;14.44;86.95;99643.02;1759311;80;20100;-61
2022/07/31 05:06:37;;;;;;;;;;;;;;;14.42;87.03;99646.67;1758514;80;20106;-61
2022/07/31 05:09:05;;;;;;;;;;;;;;;14.44;87.00;99645.64;1757857;80;20141;-60
2022/07/31 05:11:32;;;;;;;;;;;;;;;14.50;87.17;99650.97;1757118;80;20094;-61
2022/07/31 05:14:01;;;;;;;;;;;;;;;14.59;87.21;99650.87;1759104;80;21034;-61
2022/07/31 05:16:28;;;;;;;;;;;;;;;14.71;87.16;99648.30;1754142;81;20197;-60
2022/07/31 05:18:55;;;;;;;;;;;;;;;14.83;87.14;99647.96;1751586;81;20098;-61
2022/07/31 05:21:22;;;;;;;;;;;;;;;14.89;87.08;99641.45;1750928;80;20121;-61
2022/07/31 05:23:49;;;;;;;;;;;;;;;14.93;87.00;99647.73;1757734;80;20444;-62
2022/07/31 05:26:16;;;;;;;;;;;;;;;15.02;87.09;99646.27;1758288;80;21216;-62
2022/07/31 05:28:43;;;;;;;;;;;;;;;15.08;87.16;99637.13;1758561;80;20106;-62
2022/07/31 05:31:10;;;;;;;;;;;;;;;15.10;87.18;99637.88;1755873;80;20134;-62
2022/07/31 05:33:37;;;;;;;;;;;;;;;15.16;86.97;99638.77;1756709;80;20479;-61
2022/07/31 05:36:04;;;;;;;;;;;;;;;15.16;87.08;99640.09;1755245;81;20134;-62
2022/07/31 05:38:31;;;;;;;;;;;;;;;15.23;87.26;99638.71;1748769;81;21214;-61
2022/07/31 05:40:57;;;;;;;;;;;;;;;15.25;87.24;99644.72;1765084;79;20491;-62
2022/07/31 05:43:24;;;;;;;;;;;;;;;15.23;87.06;99641.34;1752855;81;20237;-62
2022/07/31 05:45:50;;;;;;;;;;;;;;;15.24;87.32;99643.05;1753329;81;20472;-62
2022/07/31 05:48:17;;;;;;;;;;;;;;;15.29;87.51;99647.52;1753376;81;20122;-62
2022/07/31 05:50:46;;;;;;;;;;;;;;;15.35;87.71;99641.84;1755158;81;20601;-62
2022/07/31 05:53:15;;;;;;;;;;;;;;;15.46;87.49;99645.06;1745447;81;20131;-62
2022/07/31 05:55:46;;;;;;;;;;;;;;;15.58;87.50;99643.36;1754121;81;20161;-60
2022/07/31 05:58:12;;;;;;;;;;;;;;;15.67;87.42;99646.66;1747966;81;20139;-59
2022/07/31 06:00:39;;;;;;;;;;;;;;;15.81;87.42;99642.63;1751717;81;20130;-60
2022/07/31 06:03:06;;;;;;;;;;;;;;;15.94;87.41;99647.05;1749488;81;21974;-59
2022/07/31 06:05:32;;;;;;;;;;;;;;;16.09;87.28;99640.67;1753763;81;20641;-60
2022/07/31 06:07:59;;;;;;;;;;;;;;;16.27;87.16;99639.37;1752754;81;20127;-59
2022/07/31 06:10:26;;;;;;;;;;;;;;;16.38;86.84;99638.56;1751450;80;20752;-59
2022/07/31 06:12:53;;;;;;;;;;;;;;;16.49;86.76;99645.69;1751257;81;20123;-60
2022/07/31 06:15:19;;;;;;;;;;;;;;;16.66;86.76;99644.45;1747461;81;21100;-60
2022/07/31 06:17:47;;;;;;;;;;;;;;;16.81;86.49;99634.63;1753900;81;20142;-60
2022/07/31 06:20:14;;;;;;;;;;;;;;;17.01;86.79;99633.96;1754650;81;20173;-60
2022/07/31 06:22:44;;;;;;;;;;;;;;;17.27;86.73;99644.33;1757833;81;20133;-60
2022/07/31 06:25:11;;;;;;;;;;;;;;;17.44;85.60;99642.07;1757940;80;20102;-59
2022/07/31 06:27:38;;;;;;;;;;;;;;;17.61;85.98;99644.72;1753922;81;20957;-60
2022/07/31 06:30:06;;;;;;;;;;;;;;;17.78;85.43;99639.93;1753254;80;20237;-60
2022/07/31 06:32:33;;;;;;;;;;;;;;;18.00;85.42;99646.55;1750331;80;20092;-60
2022/07/31 06:34:59;;;;;;;;;;;;;;;18.16;85.03;99642.70;1759262;80;20467;-60
2022/07/31 06:37:26;;;;;;;;;;;;;;;18.28;83.76;99643.03;1754035;81;20086;-60
2022/07/31 06:39:53;;;;;;;;;;;;;;;18.41;83.92;99639.76;1748295;81;21891;-60
2022/07/31 06:42:21;;;;;;;;;;;;;;;18.54;82.36;99643.09;1746703;81;20470;-61
2022/07/31 06:44:47;;;;;;;;;;;;;;;18.72;84.39;99645.19;1756205;80;20106;-61
2022/07/31 06:47:15;;;;;;;;;;;;;;;18.85;83.34;99648.53;1752034;80;20446;-61
2022/07/31 06:49:42;;;;;;;;;;;;;;;18.86;81.92;99644.91;1743056;81;20147;-61
2022/07/31 06:52:08;;;;;;;;;;;;;;;18.98;83.07;99646.53;1747321;81;21155;-61
2022/07/31 06:54:34;;;;;;;;;;;;;;;19.11;82.51;99653.45;1750914;81;20079;-61
2022/07/31 06:57:00;;;;;;;;;;;;;;;19.27;82.55;99641.08;1750741;81;20140;-61
2022/07/31 06:59:27;;;;;;;;;;;;;;;19.34;81.55;99642.25;1755377;80;20110;-61
2022/07/31 07:01:53;;;;;;;;;;;;;;;19.34;80.83;99638.28;1750926;81;20098;-60
2022/07/31 07:04:20;;;;;;;;;;;;;;;19.33;80.85;99645.38;1754499;81;21198;-60
2022/07/31 07:06:46;;;;;;;;;;;;;;;19.29;80.04;99636.00;1752656;81;20415;-60
2022/07/31 07:09:12;;;;;;;;;;;;;;;19.32;79.93;99639.72;1756871;80;20413;-60
2022/07/31 07:11:39;;;;;;;;;;;;;;;19.43;80.39;99635.67;1751044;81;20123;-60
2022/07/31 07:14:06;;;;;;;;;;;;;;;19.61;79.89;99637.73;1752363;80;20485;-60
2022/07/31 07:16:32;;;;;;;;;;;;;;;19.65;78.15;99633.83;1755176;80;21062;-60
2022/07/31 07:18:59;;;;;;;;;;;;;;;19.64;78.86;99636.14;1756994;80;20137;-65
2022/07/31 07:21:25;;;;;;;;;;;;;;;19.72;79.29;99629.73;1775222;80;20136;-63
2022/07/31 07:23:51;;;;;;;;;;;;;;;19.80;79.14;99631.69;1779947;80;20076;-65
2022/07/31 07:26:18;;;;;;;;;;;;;;;19.86;78.61;99632.01;1774892;80;20104;-62
2022/07/31 07:28:45;;;;;;;;;;;;;;;19.94;77.74;99630.48;1780636;80;21036;-62
2022/07/31 07:31:11;;;;;;;;;;;;;;;19.97;76.48;99628.42;1730942;81;20130;-62
2022/07/31 07:33:38;;;;;;;;;;;;;;;19.89;76.57;99626.44;1758294;80;20090;-62
2022/07/31 07:36:04;;;;;;;;;;;;;;;19.81;72.25;99626.27;1752036;80;20212;-62
2022/07/31 07:38:31;;;;;;;;;;;;;;;19.77;75.57;99624.84;1759355;80;20117;-62
2022/07/31 07:40:58;;;;;;;;;;;;;;;19.95;75.51;99621.58;1754706;80;21111;-62
2022/07/31 07:43:24;;;;;;;;;;;;;;;19.98;74.65;99634.55;1756857;80;20149;-63
2022/07/31 07:45:51;;;;;;;;;;;;;;;19.94;74.87;99630.48;1755857;80;20164;-62
2022/07/31 07:48:17;;;;;;;;;;;;;;;20.06;74.51;99621.47;1767866;79;20718;-62
2022/07/31 07:50:43;;;;;;;;;;;;;;;20.21;74.88;99632.02;1769871;79;20111;-62
2022/07/31 07:53:11;;;;;;;;;;;;;;;20.24;74.40;99629.59;1780213;79;21071;-62
2022/07/31 07:55:38;;;;;;;;;;;;;;;20.34;74.21;99620.69;1771263;79;20464;-62
2022/07/31 07:58:04;;;;;;;;;;;;;;;20.35;70.31;99627.65;1731596;81;20513;-62
2022/07/31 08:00:31;;;;;;;;;;;;;;;20.37;72.71;99621.39;1769109;79;20526;-62
2022/07/31 08:02:57;;;;;;;;;;;;;;;20.49;72.62;99623.77;1750047;80;20111;-62
2022/07/31 08:05:24;;;;;;;;;;;;;;;20.68;70.68;99624.30;1755022;81;21147;-62
2022/07/31 08:07:50;;;;;;;;;;;;;;;20.62;68.94;99624.86;1755160;80;20137;-62
2022/07/31 08:10:18;;;;;;;;;;;;;;;20.72;72.28;99620.37;1760157;80;20491;-63
2022/07/31 08:12:45;;;;;;;;;;;;;;;20.85;70.89;99625.91;1756832;81;20147;-62
2022/07/31 08:15:11;;;;;;;;;;;;;;;20.78;71.33;99623.82;1752751;80;20137;-63
2022/07/31 08:17:38;;;;;;;;;;;;;;;20.84;71.52;99616.25;1777354;79;21017;-63
2022/07/31 08:20:05;;;;;;;;;;;;;;;20.94;70.49;99626.38;1779182;79;20082;-62
2022/07/31 08:22:31;;;;;;;;;;;;;;;21.11;71.47;99619.02;1769415;80;20088;-63
2022/07/31 08:24:58;;;;;;;;;;;;;;;21.24;70.50;99616.89;1776802;79;20208;-63
2022/07/31 08:27:25;;;;;;;;;;;;;;;21.26;70.13;99620.75;1775656;79;20477;-63
2022/07/31 08:29:54;;;;;;;;;;;;;;;20.91;66.60;99624.84;1734863;82;21872;-62
2022/07/31 08:32:22;;;;;;;;;;;;;;;20.90;69.30;99609.08;1734813;81;20082;-63
2022/07/31 08:34:48;;;;;;;;;;;;;;;20.89;67.99;99613.52;1736209;81;21080;-62
2022/07/31 08:37:18;;;;;;;;;;;;;;;20.99;67.86;99613.53;1774220;79;20129;-62
2022/07/31 08:39:43;;;;;;;;;;;;;;;21.04;68.04;99607.30;1765648;80;20146;-62
2022/07/31 08:42:09;;;;;;;;;;;;;;;20.91;65.46;99618.20;1767655;79;21909;-62
2022/07/31 08:44:37;;;;;;;;;;;;;;;20.91;67.50;99616.05;1770022;79;20489;-62
2022/07/31 08:47:07;;;;;;;;;;;;;;;21.02;67.20;99614.56;1774791;79;20498;-63
2022/07/31 08:49:39;;;;;;;;;;;;;;;21.19;67.57;99616.48;1780412;79;20514;-62
2022/07/31 08:52:08;;;;;;;;;;;;;;;21.24;64.59;99618.23;1775684;80;20119;-62
2022/07/31 08:54:35;;;;;;;;;;;;;;;21.28;66.35;99617.94;1772055;80;20534;-62
2022/07/31 08:57:03;;;;;;;;;;;;;;;21.30;66.19;99614.66;1781087;79;20072;-62
2022/07/31 08:59:29;;;;;;;;;;;;;;;21.32;65.77;99615.36;1756248;80;20524;-62
2022/07/31 09:01:57;;;;;;;;;;;;;;;21.34;65.49;99616.02;1772800;79;20092;-62
2022/07/31 09:04:23;;;;;;;;;;;;;;;21.41;64.91;99625.97;1773998;79;20129;-63
2022/07/31 09:06:50;;;;;;;;;;;;;;;21.41;63.22;99627.80;1750663;81;21093;-62
2022/07/31 09:09:18;;;;;;;;;;;;;;;21.38;64.31;99617.46;1747986;81;20126;-62
2022/07/31 09:11:48;;;;;;;;;;;;;;;21.45;63.44;99621.20;1756100;81;20110;-62
2022/07/31 09:14:26;;;;;;;;;;;;;;;21.51;64.01;99624.62;1747890;80;20134;-63
2022/07/31 09:16:53;;;;;;;;;;;;;;;21.54;62.63;99632.80;1750110;81;20161;-63
2022/07/31 09:19:21;;;;;;;;;;;;;;;21.43;62.34;99631.16;1727858;81;20917;-63
2022/07/31 09:21:48;;;;;;;;;;;;;;;21.31;62.18;99613.66;1750374;80;20807;-63
2022/07/31 09:24:32;;;;;;;;;;;;;;;21.33;62.72;99619.67;1749651;81;20083;-63
2022/07/31 09:27:04;;;;;;;;;;;;;;;21.38;61.83;99620.12;1755273;80;20628;-63
2022/07/31 09:29:37;;;;;;;;;;;;;;;21.33;61.82;99627.64;1751848;81;20099;-63
2022/07/31 09:32:15;;;;;;;;;;;;;;;21.35;61.12;99617.72;1743725;81;21131;-63
2022/07/31 09:35:11;;;;;;;2.77;0.60;;;;;;;21.29;60.49;99628.92;1877390;74;22587;-61
2022/07/31 09:37:39;;;;;;;1.22;0.53;;;;;;;21.34;61.44;99627.98;1809588;78;21052;-63
2022/07/31 09:40:08;;;;;;;2.47;0.70;;;;;;;21.41;60.48;99629.13;1780870;79;22258;-62
2022/07/31 09:42:47;;;;;;;1.37;0.50;;;;;;;21.57;61.63;99621.38;1759382;79;20938;-63
2022/07/31 09:45:22;;;;;;;2.87;0.70;;;;;;;21.69;60.62;99615.39;1794329;78;21110;-62
2022/07/31 09:48:03;;;;;;;1.15;0.70;;;;;;;21.72;60.38;99616.92;1797052;78;20970;-63
2022/07/31 09:50:30;;;;;;;3.80;1.00;;;;;;;21.46;58.17;99622.89;1773116;78;21804;-63
2022/07/31 09:52:59;;;;;;;0.93;0.47;;;;;;;21.47;59.38;99624.55;1788693;78;21500;-62
2022/07/31 09:55:27;;;;;;;2.33;0.65;;;;;;;21.56;58.82;99622.34;1786541;78;21022;-62
2022/07/31 09:57:58;;;;;;;4.03;0.68;;;;;;;21.67;59.25;99620.84;1791831;78;21083;-63
2022/07/31 10:00:26;;;;;;;1.87;0.50;;;;;;;21.61;57.82;99616.11;1792681;78;21066;-62
2022/07/31 10:02:56;;;;;;;1.60;0.60;;;;;;;21.52;58.43;99613.01;1770146;79;20983;-63
2022/07/31 10:05:26;;;;;;;1.02;0.70;;;;;;;21.62;58.43;99620.46;1800794;78;21774;-64
2022/07/31 10:07:59;;;;;;;6.78;0.80;;;;;;;21.80;58.59;99609.05;1783879;78;21785;-64
2022/07/31 10:10:26;;;;;;;1.72;0.60;;;;;;;21.97;58.64;99610.92;1790700;78;21022;-63
2022/07/31 10:13:14;;;;;;;0.78;0.60;;;;;;;22.08;58.23;99610.71;1774877;79;21004;-64
2022/07/31 10:15:45;;;;;;;2.17;0.65;;;;;;;22.06;57.86;99612.67;1709636;81;21592;-61
2022/07/31 10:18:17;;;;;;;3.02;0.57;;;;;;;21.97;57.27;99610.92;1718799;82;22250;-64
2022/07/31 10:20:49;;;;;;;1.67;0.72;;;;;;;21.98;57.52;99609.92;1720413;81;21639;-63
2022/07/31 10:23:21;;;;;;;1.30;0.60;;;;;;;21.97;57.35;99616.23;1707922;81;20959;-63
2022/07/31 10:25:56;;;;;;;2.83;0.60;;;;;;;21.89;57.07;99605.50;1722324;81;21630;-62
2022/07/31 10:28:23;;;;;;;1.40;0.60;;;;;;;21.96;56.93;99606.59;1728599;81;21219;-63
2022/07/31 10:30:52;;;;;;;1.57;0.60;;;;;;;21.75;54.24;99600.68;1728248;81;21503;-63
2022/07/31 10:33:22;;;;;;;2.92;0.75;;;;;;;21.52;55.44;99598.40;1727905;82;22316;-63
2022/07/31 10:36:06;;;;;;;2.80;0.50;;;;;;;21.45;55.36;99599.48;1724359;81;21575;-61
2022/07/31 10:39:08;;;;;;;5.22;0.62;;;;;;;21.49;56.38;99601.34;1704955;81;20919;-62
2022/07/31 10:42:07;;;;;;;2.80;0.70;;;;;;;21.72;55.14;99600.98;1695023;82;20982;-62
2022/07/31 10:44:39;;;;;;;2.65;0.80;;;;;;;21.67;56.06;99594.77;1692623;82;21107;-60
2022/07/31 10:47:16;;;;;;;1.32;0.80;;;;;;;21.72;55.80;99590.34;1673565;83;21200;-62
2022/07/31 10:49:47;;;;;;;3.50;0.60;;;;;;;21.77;55.03;99590.75;1694572;82;21086;-62
2022/07/31 10:52:27;;;;;;;3.47;0.70;;;;;;;21.74;55.58;99597.69;1704651;82;21153;-61
2022/07/31 10:55:00;;;;;;;3.40;0.60;;;;;;;21.76;55.75;99586.40;1698965;82;21741;-61
2022/07/31 10:57:31;;;;;;;2.17;0.70;;;;;;;21.90;55.52;99588.56;1705337;82;21450;-61
2022/07/31 11:00:16;;;;;;;1.70;0.70;;;;;;;21.88;55.40;99585.23;1704095;82;21748;-61
2022/07/31 11:02:44;;;;;;;2.40;0.70;;;;;;;21.98;55.51;99586.49;1704238;82;21935;-62
2022/07/31 11:05:14;;;;;;;2.47;0.85;;;;;;;21.89;55.12;99594.38;1705044;82;22246;-62
2022/07/31 11:07:44;;;;;;;2.20;0.72;;;;;;;21.94;55.30;99584.63;1698274;82;21121;-62
2022/07/31 11:10:19;;;;;;;1.50;1.02;;;;;;;21.98;55.04;99591.31;1701764;82;21983;-62
2022/07/31 11:13:09;;;;;;;2.20;0.60;;;;;;;22.04;55.11;99574.79;1686026;83;21097;-63
2022/07/31 11:15:36;;;;;;;1.00;0.80;;;;;;;22.15;55.14;99578.20;1686049;82;68022;-62
2022/07/31 11:18:19;;;;;;;0.93;0.50;;;;;;;22.15;53.99;99586.18;1692425;83;21037;-62
2022/07/31 11:21:01;;;;;;;2.42;0.80;;;;;;;22.06;54.69;99582.10;1676681;83;21125;-61
2022/07/31 11:23:33;;;;;;;3.75;0.53;;;;;;;22.09;54.84;99581.80;1701198;83;21854;-62
2022/07/31 11:26:09;;;;;;;4.55;0.90;;;;;;;22.21;54.99;99574.97;1718148;82;22729;-62
2022/07/31 11:28:43;;;;;;;1.02;0.68;;;;;;;22.24;54.14;99585.33;1699643;83;21117;-62
2022/07/31 11:31:10;;;;;;;2.08;0.75;;;;;;;22.03;54.23;99574.42;1700035;82;21060;-62
2022/07/31 11:33:43;;;;;;;2.30;0.57;;;;;;;22.01;54.70;99571.08;1701358;82;21081;-63
2022/07/31 11:36:22;;;;;;;2.35;0.60;;;;;;;22.11;54.95;99573.19;1700733;83;21006;-60
2022/07/31 11:38:55;;;;;;;1.02;0.68;;;;;;;21.98;54.55;99583.34;1700746;82;21563;-60
2022/07/31 11:41:29;;;;;;;3.83;0.90;;;;;;;21.78;54.14;99582.61;1700946;83;21594;-61
2022/07/31 11:43:56;;;;;;;1.22;0.60;;;;;;;21.63;54.38;99583.59;1702734;83;21587;-60
2022/07/31 11:46:31;;;;;;;4.47;0.70;;;;;;;21.57;54.71;99580.20;1699488;83;21709;-63
2022/07/31 11:49:00;;;;;;;2.20;0.72;;;;;;;21.54;54.54;99571.70;1679191;84;21969;-63
2022/07/31 11:51:29;;;;;;;2.30;0.60;;;;;;;21.52;55.06;99577.64;1699771;82;21601;-62
2022/07/31 11:53:59;;;;;;;1.57;0.60;;;;;;;21.61;55.21;99565.63;1700153;83;21088;-62
2022/07/31 11:56:26;;;;;;;3.47;0.70;;;;;;;21.77;55.19;99572.14;1698849;82;21025;-61
2022/07/31 11:58:57;;;;;;;2.50;0.62;;;;;;;21.69;55.23;99572.88;1701864;82;21084;-61
2022/07/31 12:01:28;;;;;;;1.32;0.62;;;;;;;21.43;55.59;99569.56;1698270;83;21702;-62
2022/07/31 12:03:57;;;;;;;1.87;0.90;;;;;;;21.44;55.63;99569.07;1698498;82;21081;-62
2022/07/31 12:06:29;;;;;;;1.67;0.70;;;;;;;21.32;55.63;99572.87;1697785;83;22364;-61
2022/07/31 12:09:00;;;;;;;2.58;0.60;;;;;;;21.24;55.98;99569.10;1699880;83;20958;-61
2022/07/31 12:11:28;;;;;;;1.77;0.60;;;;;;;21.16;55.92;99571.64;1697567;82;21568;-61
2022/07/31 12:13:55;;;;;;;2.20;0.95;;;;;;;20.85;56.08;99572.83;1698048;82;21391;-62
2022/07/31 12:16:22;;;;;;;3.15;1.07;;;;;;;20.78;56.47;99572.08;1684219;83;29839;-61
2022/07/31 12:18:55;;;;;;;1.12;0.78;;;;;;;21.01;56.65;99570.44;1689639;82;21795;-61
2022/07/31 12:21:35;;;;;;;3.12;0.70;;;;;;;21.10;56.39;99566.91;1657357;85;21052;-61
2022/07/31 12:24:11;;;;;;;4.42;0.85;;;;;;;21.08;56.48;99572.84;1667649;84;21087;-61
2022/07/31 12:27:29;;;;;;;1.87;0.75;;;;;;;21.00;56.60;99568.73;1739228;80;22761;-60
2022/07/31 12:29:55;;;;;;;2.62;1.05;;;;;;;20.85;56.72;99563.55;1694673;81;21016;-60
2022/07/31 12:34:29;;;;;;;5.70;0.78;;;;;;;20.91;56.79;99565.63;1797808;77;21459;-60
2022/07/31 12:37:12;;;;;;;5.65;1.00;;;;;;;20.75;57.00;99563.08;1766755;79;21008;-61
2022/07/31 12:39:56;;;;;;;1.32;0.85;;;;;;;20.50;57.78;99566.24;1770223;79;22130;-61